createdAt,value
2023-03-29T00:00:12.160Z,4.90
2023-03-29T00:02:40.104Z,5.10
2023-03-29T00:05:09.274Z,5.20
2023-03-29T00:07:37.490Z,5.00
2023-03-29T00:10:08.162Z,5.10
2023-03-29T00:12:36.025Z,5.00
2023-03-29T00:15:04.414Z,4.90
2023-03-29T00:17:32.263Z,4.90
2023-03-29T00:20:00.212Z,5.10
2023-03-29T00:22:28.367Z,4.90
2023-03-29T00:24:56.238Z,5.00
2023-03-29T00:27:25.656Z,5.10
2023-03-29T00:29:53.447Z,4.90
2023-03-29T00:32:21.351Z,5.00
2023-03-29T00:34:50.615Z,5.10
2023-03-29T00:37:18.797Z,5.10
2023-03-29T00:39:48.072Z,5.00
2023-03-29T00:42:17.525Z,5.00
2023-03-29T00:45:05.303Z,5.00
2023-03-29T00:47:38.904Z,4.90
2023-03-29T00:50:14.227Z,5.10
2023-03-29T00:52:43.600Z,5.20
2023-03-29T00:55:16.559Z,5.00
2023-03-29T00:57:46.602Z,5.00
2023-03-29T01:00:20.656Z,5.10
2023-03-29T01:02:54.080Z,4.90
2023-03-29T01:05:29.448Z,4.90
2023-03-29T01:08:01.975Z,4.80
2023-03-29T01:10:35.616Z,4.90
2023-03-29T01:13:07.511Z,5.10
2023-03-29T01:15:38.784Z,4.90
2023-03-29T01:18:06.762Z,5.00
2023-03-29T01:20:46.146Z,5.00
2023-03-29T01:23:45.825Z,4.80
2023-03-29T01:26:19.929Z,5.10
2023-03-29T01:28:53.955Z,5.10
2023-03-29T01:31:26.032Z,4.90
2023-03-29T01:34:02.199Z,5.00
2023-03-29T01:36:37.150Z,5.00
2023-03-29T01:39:07.600Z,5.10
2023-03-29T01:41:41.528Z,4.90
2023-03-29T01:44:16.429Z,5.00
2023-03-29T01:46:47.619Z,4.80
2023-03-29T01:49:21.775Z,4.90
2023-03-29T01:51:56.094Z,4.90
2023-03-29T01:54:28.660Z,4.80
2023-03-29T01:56:58.466Z,4.90
2023-03-29T01:59:32.234Z,5.00
2023-03-29T02:02:02.132Z,4.70
2023-03-29T02:04:34.511Z,4.90
2023-03-29T02:07:05.873Z,5.00
2023-03-29T02:09:37.157Z,5.00
2023-03-29T02:12:07.609Z,5.20
2023-03-29T02:14:36.787Z,4.90
2023-03-29T02:17:18.170Z,4.90
2023-03-29T02:19:50.037Z,4.80
2023-03-29T02:22:24.136Z,5.00
2023-03-29T02:24:56.547Z,5.20
2023-03-29T02:27:24.501Z,4.90
2023-03-29T02:29:54.057Z,4.90
2023-03-29T02:32:27.290Z,5.20
2023-03-29T02:34:59.766Z,5.00
2023-03-29T02:37:30.200Z,4.90
2023-03-29T02:39:59.718Z,5.00
2023-03-29T02:42:29.368Z,4.90
2023-03-29T02:45:01.172Z,4.80
2023-03-29T02:47:33.405Z,4.70
2023-03-29T02:50:01.573Z,4.90
2023-03-29T02:52:35.035Z,4.70
2023-03-29T02:55:06.236Z,4.80
2023-03-29T02:57:35.524Z,5.10
2023-03-29T03:00:09.457Z,5.00
2023-03-29T03:02:37.514Z,4.80
2023-03-29T03:05:06.327Z,4.90
2023-03-29T03:07:34.324Z,4.90
2023-03-29T03:10:03.837Z,5.20
2023-03-29T03:12:31.692Z,5.10
2023-03-29T03:14:59.511Z,5.20
2023-03-29T03:17:28.681Z,5.20
2023-03-29T03:19:56.502Z,5.10
2023-03-29T03:22:24.768Z,5.30
2023-03-29T03:24:52.601Z,5.40
2023-03-29T03:27:20.482Z,5.20
2023-03-29T03:29:48.524Z,5.20
2023-03-29T03:32:16.404Z,5.20
2023-03-29T03:34:45.621Z,5.10
2023-03-29T03:37:13.543Z,5.20
2023-03-29T03:39:41.479Z,5.20
2023-03-29T03:42:09.302Z,5.20
2023-03-29T03:44:37.848Z,5.10
2023-03-29T03:47:06.635Z,5.30
2023-03-29T03:49:34.592Z,5.20
2023-03-29T03:52:03.802Z,5.30
2023-03-29T03:54:31.990Z,5.30
2023-03-29T03:56:59.870Z,5.30
2023-03-29T03:59:27.670Z,5.30
2023-03-29T04:01:55.529Z,5.50
2023-03-29T04:04:24.097Z,5.40
2023-03-29T04:06:52.704Z,5.30
2023-03-29T04:09:22.710Z,5.60
2023-03-29T04:11:52.952Z,5.40
2023-03-29T04:14:21.487Z,5.50
2023-03-29T04:16:49.335Z,5.50
2023-03-29T04:19:17.594Z,5.70
2023-03-29T04:21:45.954Z,5.60
2023-03-29T04:24:13.962Z,5.40
2023-03-29T04:26:43.243Z,5.50
2023-03-29T04:29:11.086Z,5.40
2023-03-29T04:31:38.984Z,5.70
2023-03-29T04:34:07.118Z,5.50
2023-03-29T04:36:35.019Z,5.60
2023-03-29T04:39:04.152Z,5.80
2023-03-29T04:41:32.536Z,5.70
2023-03-29T04:44:02.448Z,5.60
2023-03-29T04:46:30.861Z,5.60
2023-03-29T04:48:58.734Z,5.90
2023-03-29T04:51:27.402Z,5.70
2023-03-29T04:53:55.223Z,5.90
2023-03-29T04:56:23.081Z,5.80
2023-03-29T04:58:51.620Z,5.70
2023-03-29T05:01:20.781Z,5.80
2023-03-29T05:03:48.615Z,5.70
2023-03-29T05:06:16.918Z,5.80
2023-03-29T05:08:44.822Z,5.60
2023-03-29T05:11:13.559Z,5.80
2023-03-29T05:13:42.419Z,5.90
2023-03-29T05:16:11.582Z,5.90
2023-03-29T05:18:40.842Z,5.80
2023-03-29T05:21:09.416Z,5.90
2023-03-29T05:23:37.408Z,5.90
2023-03-29T05:26:08.011Z,5.90
2023-03-29T05:28:35.838Z,6.00
2023-03-29T05:31:06.208Z,5.80
2023-03-29T05:33:35.302Z,5.80
2023-03-29T05:36:07.829Z,5.80
2023-03-29T05:38:35.926Z,5.90
2023-03-29T05:41:04.233Z,5.80
2023-03-29T05:43:32.225Z,6.00
2023-03-29T05:46:00.360Z,5.80
2023-03-29T05:48:28.924Z,5.70
2023-03-29T05:50:57.702Z,6.00
2023-03-29T05:53:28.265Z,6.10
2023-03-29T05:55:56.340Z,5.80
2023-03-29T05:58:26.506Z,5.80
2023-03-29T06:00:54.485Z,6.00
2023-03-29T06:03:25.540Z,5.80
2023-03-29T06:05:58.377Z,5.90
2023-03-29T06:08:28.966Z,5.80
2023-03-29T06:11:04.456Z,6.00
2023-03-29T06:13:34.413Z,5.80
2023-03-29T06:16:04.117Z,6.00
2023-03-29T06:18:32.167Z,6.10
2023-03-29T06:21:03.955Z,6.10
2023-03-29T06:23:34.126Z,6.10
2023-03-29T06:26:02.389Z,6.20
2023-03-29T06:28:30.534Z,6.30
2023-03-29T06:33:30.590Z,6.50
2023-03-29T06:35:58.445Z,6.60
2023-03-29T06:38:28.208Z,6.50
2023-03-29T06:41:04.454Z,6.50
2023-03-29T06:43:33.325Z,6.50
2023-03-29T06:46:01.833Z,6.50
2023-03-29T06:48:30.062Z,6.60
2023-03-29T06:50:58.029Z,6.70
2023-03-29T06:53:26.233Z,6.60
2023-03-29T06:55:54.094Z,6.70
2023-03-29T06:58:23.259Z,6.90
2023-03-29T07:00:51.607Z,6.80
2023-03-29T07:03:23.310Z,6.80
2023-03-29T07:05:52.013Z,6.90
2023-03-29T07:08:21.292Z,7.00
2023-03-29T07:10:53.564Z,7.00
2023-03-29T07:13:23.495Z,6.90
2023-03-29T07:15:51.409Z,7.00
2023-03-29T07:18:19.773Z,7.20
2023-03-29T07:20:48.538Z,7.00
2023-03-29T07:23:16.987Z,7.30
2023-03-29T07:25:46.095Z,7.20
2023-03-29T07:28:13.948Z,7.20
2023-03-29T07:30:43.132Z,7.30
2023-03-29T07:33:12.203Z,7.60
2023-03-29T07:35:43.349Z,7.50
2023-03-29T07:38:11.304Z,7.70
2023-03-29T07:40:39.106Z,7.60
2023-03-29T07:43:09.251Z,7.60
2023-03-29T07:45:37.207Z,7.60
2023-03-29T07:48:07.140Z,7.80
2023-03-29T07:50:35.218Z,7.70
2023-03-29T07:53:03.273Z,7.80
2023-03-29T07:55:31.308Z,7.80
2023-03-29T07:57:59.142Z,8.10
2023-03-29T08:00:27.196Z,8.10
2023-03-29T08:02:55.777Z,8.10
2023-03-29T08:07:55.893Z,8.30
2023-03-29T08:10:24.403Z,8.30
2023-03-29T08:12:53.267Z,8.30
2023-03-29T08:15:21.180Z,8.30
2023-03-29T08:17:49.082Z,8.40
2023-03-29T08:20:17.234Z,8.50
2023-03-29T08:22:46.389Z,8.60
2023-03-29T08:25:14.198Z,8.60
2023-03-29T08:27:42.400Z,8.80
2023-03-29T08:30:10.509Z,8.90
2023-03-29T08:32:39.080Z,9.10
2023-03-29T08:35:09.497Z,9.20
2023-03-29T08:37:38.008Z,9.40
2023-03-29T08:40:08.604Z,9.60
2023-03-29T08:43:09.531Z,9.60
2023-03-29T08:45:44.145Z,9.80
2023-03-29T08:48:22.176Z,9.80
2023-03-29T08:50:53.581Z,9.80
2023-03-29T08:53:27.143Z,10.00
2023-03-29T08:55:59.433Z,10.20
2023-03-29T08:58:32.330Z,10.10
2023-03-29T09:01:02.521Z,10.10
2023-03-29T09:03:35.530Z,10.20
2023-03-29T09:06:07.030Z,9.80
2023-03-29T09:08:38.896Z,9.60
2023-03-29T09:11:24.250Z,9.60
2023-03-29T09:14:05.268Z,9.40
2023-03-29T09:16:39.037Z,9.30
2023-03-29T09:19:26.862Z,9.50
2023-03-29T09:22:04.167Z,9.50
2023-03-29T09:24:44.774Z,9.70
2023-03-29T09:27:21.755Z,9.80
2023-03-29T09:29:59.709Z,9.70
2023-03-29T09:32:33.064Z,9.90
2023-03-29T09:35:14.080Z,9.90
2023-03-29T09:37:42.669Z,10.20
2023-03-29T09:40:14.688Z,10.20
2023-03-29T09:42:45.809Z,10.40
2023-03-29T09:45:14.085Z,10.70
2023-03-29T09:47:46.987Z,10.80
2023-03-29T09:50:30.099Z,10.90
2023-03-29T09:52:59.903Z,10.80
2023-03-29T09:55:30.164Z,10.80
2023-03-29T09:58:02.986Z,10.70
2023-03-29T10:00:30.886Z,10.50
2023-03-29T10:03:00.253Z,10.50
2023-03-29T10:05:31.912Z,10.50
2023-03-29T10:08:02.163Z,10.40
2023-03-29T10:10:32.370Z,10.50
2023-03-29T10:13:05.324Z,10.50
2023-03-29T10:15:34.142Z,10.40
2023-03-29T10:18:04.373Z,10.40
2023-03-29T10:20:35.610Z,10.20
2023-03-29T10:23:03.523Z,10.00
2023-03-29T10:25:33.754Z,9.70
2023-03-29T10:28:09.281Z,9.60
2023-03-29T10:30:40.614Z,9.90
2023-03-29T10:33:20.015Z,9.90
2023-03-29T10:35:49.177Z,10.00
2023-03-29T10:38:19.774Z,10.20
2023-03-29T10:40:49.370Z,10.60
2023-03-29T10:43:25.540Z,10.90
2023-03-29T10:45:55.770Z,11.20
2023-03-29T10:48:28.890Z,11.30
2023-03-29T10:51:01.064Z,11.70
2023-03-29T10:53:32.578Z,11.70
2023-03-29T10:56:13.219Z,12.10
2023-03-29T10:58:57.193Z,12.20
2023-03-29T11:01:33.176Z,12.10
2023-03-29T11:04:09.126Z,11.90
2023-03-29T11:06:41.121Z,11.60
2023-03-29T11:09:19.467Z,11.50
2023-03-29T11:12:16.106Z,11.40
2023-03-29T11:14:56.842Z,11.20
2023-03-29T11:17:38.106Z,11.30
2023-03-29T11:20:22.302Z,11.20
2023-03-29T11:22:56.209Z,11.20
2023-03-29T11:25:35.570Z,11.10
2023-03-29T11:28:10.667Z,11.30
2023-03-29T11:30:48.850Z,11.10
2023-03-29T11:33:31.067Z,11.10
2023-03-29T11:36:06.819Z,11.10
2023-03-29T11:38:40.760Z,11.10
2023-03-29T11:41:17.557Z,11.20
2023-03-29T11:43:50.582Z,11.30
2023-03-29T11:46:26.189Z,11.30
2023-03-29T11:49:00.340Z,11.40
2023-03-29T11:51:33.777Z,11.30
2023-03-29T11:54:07.055Z,11.30
2023-03-29T11:56:41.193Z,11.30
2023-03-29T11:59:15.893Z,11.40
2023-03-29T12:01:49.917Z,11.80
2023-03-29T12:04:22.940Z,12.50
2023-03-29T12:06:58.754Z,12.80
2023-03-29T12:09:37.010Z,13.00
2023-03-29T12:12:09.874Z,13.00
2023-03-29T12:14:50.725Z,12.80
2023-03-29T12:17:25.317Z,13.00
2023-03-29T12:20:05.423Z,13.10
2023-03-29T12:22:34.745Z,13.20
2023-03-29T12:25:05.278Z,13.30
2023-03-29T12:27:39.035Z,13.30
2023-03-29T12:30:38.363Z,13.30
2023-03-29T12:33:31.878Z,13.00
2023-03-29T12:36:16.271Z,13.00
2023-03-29T12:38:46.044Z,13.20
2023-03-29T12:41:18.938Z,13.00
2023-03-29T12:43:48.081Z,12.80
2023-03-29T12:46:19.649Z,12.60
2023-03-29T12:48:53.158Z,12.40
2023-03-29T12:51:24.553Z,12.20
2023-03-29T12:53:54.724Z,12.20
2023-03-29T12:56:24.541Z,12.40
2023-03-29T12:59:06.731Z,12.40
2023-03-29T13:01:37.589Z,12.50
2023-03-29T13:04:19.918Z,12.60
2023-03-29T13:07:03.912Z,12.40
2023-03-29T13:09:35.565Z,12.30
2023-03-29T13:12:18.526Z,12.20
2023-03-29T13:14:53.336Z,12.30
2023-03-29T13:17:28.223Z,12.50
2023-03-29T13:20:19.923Z,12.60
2023-03-29T13:22:57.456Z,12.60
2023-03-29T13:25:41.312Z,12.70
2023-03-29T13:28:17.513Z,12.60
2023-03-29T13:30:55.930Z,12.60
2023-03-29T13:33:49.989Z,12.50
2023-03-29T13:36:39.283Z,12.40
2023-03-29T13:39:08.333Z,12.50
2023-03-29T13:41:48.857Z,12.70
2023-03-29T13:44:29.626Z,12.60
2023-03-29T13:47:07.121Z,12.70
2023-03-29T13:49:36.621Z,12.80
2023-03-29T13:52:16.024Z,12.90
2023-03-29T13:54:51.762Z,13.10
2023-03-29T13:57:21.765Z,13.40
2023-03-29T13:59:57.043Z,13.40
2023-03-29T14:02:33.895Z,13.70
2023-03-29T14:05:04.847Z,13.70
2023-03-29T14:07:40.733Z,13.50
2023-03-29T14:10:13.285Z,13.60
2023-03-29T14:12:42.226Z,13.50
2023-03-29T14:15:23.747Z,13.60
2023-03-29T14:17:57.161Z,13.70
2023-03-29T14:20:28.368Z,13.90
2023-03-29T14:22:57.744Z,14.00
2023-03-29T14:25:26.136Z,14.10
2023-03-29T14:27:53.958Z,14.30
2023-03-29T14:30:27.181Z,14.30
2023-03-29T14:32:56.702Z,14.20
2023-03-29T14:35:32.732Z,14.10
2023-03-29T14:38:03.730Z,14.00
2023-03-29T14:40:32.426Z,14.10
2023-03-29T14:43:05.654Z,14.00
2023-03-29T14:45:34.198Z,14.00
2023-03-29T14:48:02.509Z,13.80
2023-03-29T14:50:32.112Z,13.70
2023-03-29T14:53:03.129Z,13.80
2023-03-29T14:55:31.709Z,13.80
2023-03-29T14:58:00.551Z,14.00
2023-03-29T15:00:31.348Z,14.20
2023-03-29T15:03:02.280Z,14.20
2023-03-29T15:05:36.247Z,14.20
2023-03-29T15:08:07.333Z,14.10
2023-03-29T15:10:37.531Z,14.20
2023-03-29T15:13:07.487Z,14.20
2023-03-29T15:15:40.025Z,14.30
2023-03-29T15:18:10.602Z,14.30
2023-03-29T15:20:40.613Z,14.30
2023-03-29T15:23:25.088Z,14.30
2023-03-29T15:25:59.218Z,14.50
2023-03-29T15:28:31.184Z,14.40
2023-03-29T15:31:07.879Z,14.30
2023-03-29T15:33:38.828Z,14.30
2023-03-29T15:36:09.889Z,14.30
2023-03-29T15:38:44.545Z,14.40
2023-03-29T15:41:14.524Z,14.30
2023-03-29T15:43:43.028Z,14.50
2023-03-29T15:46:13.554Z,14.50
2023-03-29T15:48:42.092Z,14.40
2023-03-29T15:51:11.712Z,14.40
2023-03-29T15:53:41.688Z,14.50
2023-03-29T15:56:11.232Z,14.50
2023-03-29T15:58:39.896Z,14.40
2023-03-29T16:01:23.575Z,14.40
2023-03-29T16:03:51.880Z,14.40
2023-03-29T16:06:22.328Z,14.10
2023-03-29T16:08:51.689Z,14.00
2023-03-29T16:11:19.601Z,14.20
2023-03-29T16:13:47.692Z,14.10
2023-03-29T16:16:15.667Z,14.10
2023-03-29T16:18:43.813Z,14.10
2023-03-29T16:21:14.432Z,13.90
2023-03-29T16:23:42.976Z,13.80
2023-03-29T16:26:14.784Z,13.50
2023-03-29T16:28:43.118Z,13.50
2023-03-29T16:31:12.601Z,13.40
2023-03-29T16:33:42.493Z,13.30
2023-03-29T16:36:12.567Z,13.30
2023-03-29T16:38:41.782Z,13.30
2023-03-29T16:41:14.967Z,13.30
2023-03-29T16:43:43.152Z,13.30
2023-03-29T16:46:12.840Z,13.40
2023-03-29T16:48:44.675Z,13.40
2023-03-29T16:51:12.645Z,13.40
2023-03-29T16:53:40.643Z,13.30
2023-03-29T16:56:12.566Z,13.40
2023-03-29T16:58:42.416Z,13.30
2023-03-29T17:01:12.383Z,13.20
2023-03-29T17:03:40.994Z,13.30
2023-03-29T17:06:11.461Z,13.30
2023-03-29T17:08:40.708Z,13.20
2023-03-29T17:11:08.995Z,13.20
2023-03-29T17:13:37.460Z,13.20
2023-03-29T17:16:08.004Z,13.20
2023-03-29T17:18:36.137Z,13.10
2023-03-29T17:21:04.318Z,13.10
2023-03-29T17:23:32.498Z,13.00
2023-03-29T17:26:01.943Z,12.90
2023-03-29T17:28:30.637Z,12.80
2023-03-29T17:30:58.561Z,12.70
2023-03-29T17:33:37.065Z,12.70
2023-03-29T17:36:06.279Z,12.70
2023-03-29T17:38:34.879Z,12.60
2023-03-29T17:41:04.430Z,12.50
2023-03-29T17:43:32.745Z,12.50
2023-03-29T17:46:01.872Z,12.40
2023-03-29T17:48:32.743Z,12.50
2023-03-29T17:51:01.058Z,12.30
2023-03-29T17:53:28.913Z,12.30
2023-03-29T17:55:57.018Z,12.20
2023-03-29T17:58:25.232Z,12.00
2023-03-29T18:00:53.208Z,12.10
2023-03-29T18:03:21.869Z,12.10
2023-03-29T18:05:51.132Z,12.20
2023-03-29T18:08:19.459Z,12.10
2023-03-29T18:10:47.303Z,12.00
2023-03-29T18:13:15.924Z,12.10
2023-03-29T18:15:45.030Z,12.00
2023-03-29T18:18:13.025Z,12.10
2023-03-29T18:20:41.254Z,11.90
2023-03-29T18:23:10.587Z,11.90
2023-03-29T18:25:38.660Z,11.90
2023-03-29T18:28:06.507Z,11.90
2023-03-29T18:30:34.578Z,11.80
2023-03-29T18:33:02.537Z,12.00
2023-03-29T18:35:31.652Z,12.00
2023-03-29T18:37:59.726Z,12.00
2023-03-29T18:40:28.986Z,12.00
2023-03-29T18:42:56.854Z,12.10
2023-03-29T18:45:27.168Z,12.10
2023-03-29T18:47:55.209Z,12.10
2023-03-29T18:50:23.513Z,12.20
2023-03-29T18:52:52.191Z,12.10
2023-03-29T18:55:20.445Z,12.10
2023-03-29T18:57:50.443Z,12.10
2023-03-29T19:00:19.248Z,12.10
2023-03-29T19:02:47.565Z,12.20
2023-03-29T19:05:17.584Z,12.20
2023-03-29T19:07:45.605Z,12.20
2023-03-29T19:10:13.746Z,12.30
2023-03-29T19:12:42.041Z,12.00
2023-03-29T19:15:14.631Z,12.10
2023-03-29T19:17:42.874Z,12.30
2023-03-29T19:20:11.987Z,12.20
2023-03-29T19:22:40.693Z,12.30
2023-03-29T19:25:09.838Z,12.10
2023-03-29T19:27:39.115Z,12.20
2023-03-29T19:30:09.079Z,12.30
2023-03-29T19:32:38.746Z,12.30
2023-03-29T19:35:09.427Z,12.20
2023-03-29T19:37:37.413Z,12.40
2023-03-29T19:40:08.118Z,12.30
2023-03-29T19:42:37.026Z,12.10
2023-03-29T19:45:06.483Z,12.20
2023-03-29T19:47:34.591Z,12.40
2023-03-29T19:50:05.193Z,12.40
2023-03-29T19:52:34.130Z,12.30
2023-03-29T19:55:02.105Z,12.20
2023-03-29T19:57:30.866Z,12.20
2023-03-29T19:59:59.023Z,12.10
2023-03-29T20:02:27.444Z,12.00
2023-03-29T20:04:57.603Z,12.00
2023-03-29T20:07:29.081Z,12.00
2023-03-29T20:09:57.659Z,12.10
2023-03-29T20:12:26.023Z,11.90
2023-03-29T20:14:53.934Z,11.90
2023-03-29T20:17:22.180Z,12.20
2023-03-29T20:19:50.812Z,12.10
2023-03-29T20:22:19.074Z,12.00
2023-03-29T20:24:49.392Z,11.90
2023-03-29T20:27:18.218Z,11.90
2023-03-29T20:29:46.497Z,11.80
2023-03-29T20:32:14.753Z,11.60
2023-03-29T20:34:43.007Z,11.60
2023-03-29T20:37:12.826Z,11.60
2023-03-29T20:39:42.994Z,11.50
2023-03-29T20:42:14.360Z,11.50
2023-03-29T20:44:42.270Z,11.50
2023-03-29T20:47:14.051Z,11.40
2023-03-29T20:49:42.616Z,11.30
2023-03-29T20:52:15.472Z,11.30
2023-03-29T20:54:44.800Z,11.20
2023-03-29T20:57:16.342Z,11.20
2023-03-29T20:59:45.874Z,11.20
2023-03-29T21:02:16.470Z,11.20
2023-03-29T21:04:45.306Z,11.10
2023-03-29T21:07:13.236Z,11.10
2023-03-29T21:09:42.208Z,11.10
2023-03-29T21:12:11.196Z,11.00
2023-03-29T21:14:40.745Z,11.10
2023-03-29T21:17:09.326Z,11.00
2023-03-29T21:19:39.272Z,11.00
2023-03-29T21:22:07.201Z,11.00
2023-03-29T21:24:42.727Z,10.90
2023-03-29T21:27:10.633Z,10.90
2023-03-29T21:29:41.537Z,10.90
2023-03-29T21:32:11.189Z,10.80
2023-03-29T21:34:39.987Z,10.80
2023-03-29T21:37:08.456Z,10.90
2023-03-29T21:39:37.011Z,10.80
2023-03-29T21:42:05.226Z,10.80
2023-03-29T21:44:34.490Z,10.70
2023-03-29T21:47:04.297Z,10.80
2023-03-29T21:49:34.435Z,10.80
2023-03-29T21:52:03.196Z,10.70
2023-03-29T21:54:31.913Z,10.80
2023-03-29T21:56:59.960Z,10.80
2023-03-29T21:59:28.750Z,10.80
2023-03-29T22:01:57.994Z,10.80
2023-03-29T22:04:36.473Z,10.70
2023-03-29T22:07:05.796Z,10.90
2023-03-29T22:09:34.641Z,10.80
2023-03-29T22:12:02.849Z,10.90
2023-03-29T22:14:34.716Z,10.90
2023-03-29T22:17:03.072Z,11.00
2023-03-29T22:19:38.867Z,11.00
2023-03-29T22:22:14.076Z,10.90
2023-03-29T22:24:42.685Z,10.90
2023-03-29T22:27:11.655Z,10.90
2023-03-29T22:29:39.989Z,10.90
2023-03-29T22:32:08.120Z,10.80
2023-03-29T22:34:39.228Z,10.80
2023-03-29T22:37:07.127Z,10.80
2023-03-29T22:39:36.639Z,10.80
2023-03-29T22:42:04.938Z,10.80
2023-03-29T22:44:33.914Z,10.70
2023-03-29T22:47:01.830Z,10.60
2023-03-29T22:49:29.965Z,10.50
2023-03-29T22:51:59.889Z,10.40
2023-03-29T22:54:28.033Z,10.50
2023-03-29T22:56:56.403Z,10.30
2023-03-29T22:59:28.006Z,10.40
2023-03-29T23:01:56.266Z,10.20
2023-03-29T23:04:24.697Z,10.30
2023-03-29T23:06:53.140Z,10.30
2023-03-29T23:09:22.587Z,10.20
2023-03-29T23:11:50.959Z,10.20
2023-03-29T23:14:19.128Z,10.10
2023-03-29T23:16:47.768Z,10.10
2023-03-29T23:19:15.727Z,10.00
2023-03-29T23:21:43.662Z,10.10
2023-03-29T23:24:11.881Z,10.00
2023-03-29T23:26:41.561Z,10.00
2023-03-29T23:29:09.579Z,10.00
2023-03-29T23:31:37.950Z,10.10
2023-03-29T23:34:06.329Z,10.00
2023-03-29T23:36:34.693Z,10.10
2023-03-29T23:39:02.937Z,10.00
2023-03-29T23:41:31.120Z,9.90
2023-03-29T23:44:00.964Z,10.00
2023-03-29T23:46:28.926Z,10.10
2023-03-29T23:48:57.184Z,10.10
2023-03-29T23:51:29.505Z,10.20
2023-03-29T23:53:57.845Z,10.20
2023-03-29T23:56:26.300Z,10.40
2023-03-29T23:58:55.734Z,10.40
